Time;durP1;ratioP1;P1;durP2;ratioP2;P2;SDS_P1;SDS_P2;PMS_P1;PMS_P2;Temp;Humidity;BMP_temperature;BMP_pressure;BME280_temperature;BME280_humidity;BME280_pressure;Samples;Min_cycle;Max_cycle;Signal;HPM_P1;HPM_P2
2024/04/20 00:01:28;;;;;;;;;48.67;42.00;;;;;2.09;100.00;98746.22;6303088;20;2868044;-40
2024/04/20 00:03:57;;;;;;;;;59.00;44.00;;;;;2.10;100.00;98747.94;6305023;20;2874333;-38
2024/04/20 00:06:26;;;;;;;;;49.00;43.67;;;;;1.75;100.00;98726.44;6305369;20;2875354;-38
2024/04/20 00:08:54;;;;;;;;;52.67;42.67;;;;;2.05;100.00;98734.03;6303336;20;2875371;-39
2024/04/20 00:11:25;;;;;;;;;41.67;37.33;;;;;2.27;100.00;98740.13;6303281;20;2866022;-38
2024/04/20 00:13:54;;;;;;;;;48.67;42.00;;;;;1.69;100.00;98732.00;6305817;20;2863821;-38
2024/04/20 00:16:23;;;;;;;;;38.67;37.00;;;;;1.92;100.00;98733.69;6304119;20;2859676;-38
2024/04/20 00:18:50;;;;;;;;;42.00;40.00;;;;;1.94;100.00;98723.88;6301429;20;2857602;-39
2024/04/20 00:21:18;;;;;;;;;47.33;42.00;;;;;2.25;100.00;98726.09;6273382;20;2863901;-38
2024/04/20 00:23:47;;;;;;;;;44.33;37.00;;;;;2.20;100.00;98723.63;6302962;20;2874335;-38
2024/04/20 00:26:14;;;;;;;;;44.00;39.50;;;;;2.33;100.00;98718.69;6304363;20;2855555;-38
2024/04/20 00:28:42;;;;;;;;;44.00;42.00;;;;;2.58;100.00;98718.47;6271138;20;2861801;-44
2024/04/20 00:31:08;;;;;;;;;44.00;40.00;;;;;2.56;100.00;98719.47;6266923;20;2500386;-39
2024/04/20 00:33:36;;;;;;;;;43.50;39.50;;;;;2.52;100.00;98723.16;6273359;20;2840955;-38
2024/04/20 00:36:04;;;;;;;;;45.00;41.00;;;;;2.07;100.00;98716.28;6273361;20;2860750;-38
2024/04/20 00:38:31;;;;;;;;;39.00;36.50;;;;;2.16;100.00;98711.47;6267991;20;2500919;-38
2024/04/20 00:40:59;;;;;;;;;41.50;35.50;;;;;2.12;100.00;98711.66;6270751;20;2864906;-38
2024/04/20 00:43:27;;;;;;;;;39.50;37.50;;;;;2.27;100.00;98708.34;6270865;20;2855488;-38
2024/04/20 00:45:57;;;;;;;;;43.00;33.67;;;;;2.36;100.00;98707.94;6271863;20;2874435;-40
2024/04/20 00:48:27;;;;;;;;;36.50;33.00;;;;;2.34;100.00;98707.16;6303441;20;2858646;-39
2024/04/20 00:50:56;;;;;;;;;48.00;33.00;;;;;2.62;100.00;98713.88;6271169;20;3638837;-39
2024/04/20 00:53:25;;;;;;;;;42.00;37.00;;;;;2.67;100.00;98705.72;6304708;20;2800326;-38
2024/04/20 00:55:53;;;;;;;;;36.00;36.00;;;;;2.75;100.00;98709.75;6270321;20;2838982;-39
2024/04/20 00:58:21;;;;;;;;;44.50;39.00;;;;;2.64;100.00;98712.88;6270737;20;2840899;-39
2024/04/20 01:00:50;;;;;;;;;33.00;31.50;;;;;2.44;100.00;98709.41;6272556;20;2854457;-39
2024/04/20 01:03:16;;;;;;;;;16.50;9.50;;;;;2.44;100.00;98710.25;6271571;20;2800418;-39
2024/04/20 01:05:45;;;;;;;;;42.00;38.33;;;;;2.32;100.00;98714.31;6272541;20;2858792;-38
2024/04/20 01:08:13;;;;;;;;;43.33;39.33;;;;;2.49;100.00;98697.66;6302018;20;2854456;-38
2024/04/20 01:10:42;;;;;;;;;50.33;41.67;;;;;2.56;100.00;98709.72;6302437;20;3616915;-39
2024/04/20 01:13:10;;;;;;;;;44.50;38.00;;;;;2.62;100.00;98713.88;6300438;20;2868018;-38
2024/04/20 01:15:38;;;;;;;;;50.50;42.50;;;;;2.67;100.00;98719.84;6270034;20;2870097;-38
2024/04/20 01:18:06;;;;;;;;;42.00;40.00;;;;;2.52;100.00;98717.88;6270674;20;2855512;-40
2024/04/20 01:20:35;;;;;;;;;46.00;39.50;;;;;2.05;100.00;98712.84;6272408;20;2850275;-41
2024/04/20 01:23:03;;;;;;;;;46.00;38.50;;;;;2.06;100.00;98710.16;6271576;20;2855504;-39
2024/04/20 01:25:31;;;;;;;;;47.00;40.67;;;;;2.28;100.00;98699.47;6271354;20;2864865;-39
2024/04/20 01:28:01;;;;;;;;;43.33;39.33;;;;;2.31;100.00;98709.94;6301436;20;2851406;-39
2024/04/20 01:30:29;;;;;;;;;40.33;34.67;;;;;2.66;100.00;98710.19;6300972;20;2866972;-39
2024/04/20 01:32:58;;;;;;;;;40.33;33.33;;;;;2.46;100.00;98707.56;6302538;20;2875351;-38
2024/04/20 01:35:25;;;;;;;;;25.00;25.00;;;;;2.83;100.00;98720.84;6306208;20;2492116;-38
2024/04/20 01:37:52;;;;;;;;;37.00;33.00;;;;;2.95;100.00;98715.91;6270919;20;2852449;-38
2024/04/20 01:40:20;;;;;;;;;41.50;34.00;;;;;3.16;100.00;98720.25;6270911;20;2873255;-41
2024/04/20 01:42:48;;;;;;;;;35.00;31.00;;;;;2.99;100.00;98717.50;6270733;20;2838864;-41
2024/04/20 01:45:15;;;;;;;;;39.00;33.00;;;;;3.24;100.00;98723.38;6270106;20;2850530;-39
2024/04/20 01:47:44;;;;;;;;;37.00;34.00;;;;;2.72;100.00;98723.13;6271488;20;2858725;-40
2024/04/20 01:50:12;;;;;;;;;32.50;31.00;;;;;2.81;100.00;98709.44;6269899;20;2850324;-41
2024/04/20 01:52:40;;;;;;;;;39.50;31.00;;;;;3.19;100.00;98714.78;6267282;20;2859733;-39
2024/04/20 01:55:08;;;;;;;;;34.50;28.50;;;;;3.11;100.00;98716.06;6275247;20;2841089;-39
2024/04/20 01:57:36;;;;;;;;;35.00;34.00;;;;;3.16;100.00;98714.03;6275758;20;2858765;-38
2024/04/20 02:00:04;;;;;;;;;34.50;33.00;;;;;3.11;100.00;98716.06;6275745;20;2845193;-39
2024/04/20 02:02:31;;;;;;;;;36.50;30.00;;;;;3.29;100.00;98716.06;6276116;20;2845191;-40
2024/04/20 02:04:58;;;;;;;;;32.50;30.00;;;;;3.41;100.00;98719.06;6273347;20;2500297;-37
2024/04/20 02:07:26;;;;;;;;;36.00;30.50;;;;;3.17;100.00;98721.94;6276762;20;2861746;-39
2024/04/20 02:09:53;;;;;;;;;30.00;25.00;;;;;3.05;100.00;98717.22;6273886;20;2852478;-39
2024/04/20 02:12:20;;;;;;;;;31.00;26.00;;;;;3.15;100.00;98713.19;6272465;20;2500404;-38
2024/04/20 02:14:47;;;;;;;;;28.50;22.50;;;;;3.75;100.00;98720.94;6270721;20;2501103;-40
2024/04/20 02:17:14;;;;;;;;;33.00;27.00;;;;;3.44;100.00;98721.56;6275005;20;2852391;-38
2024/04/20 02:19:41;;;;;;;;;29.00;26.00;;;;;3.55;100.00;98716.59;6270267;20;2487774;-38
2024/04/20 02:22:08;;;;;;;;;28.67;25.67;;;;;3.45;100.00;98715.31;6276247;20;3582565;-38
2024/04/20 02:24:35;;;;;;;;;23.00;23.00;;;;;3.42;100.00;98710.16;6272647;20;2500304;-38
2024/04/20 02:27:02;;;;;;;;;28.50;24.00;;;;;3.51;100.00;98709.72;6271183;20;2500269;-38
2024/04/20 02:29:29;;;;;;;;;19.50;16.50;;;;;3.40;100.00;98712.03;6276809;20;2814959;-39
2024/04/20 02:31:55;;;;;;;;;25.50;23.50;;;;;3.51;100.00;98709.72;6270068;20;2500294;-39
2024/04/20 02:34:22;;;;;;;;;35.50;27.00;;;;;3.75;100.00;98702.34;6270413;20;2489845;-39
2024/04/20 02:36:49;;;;;;;;;31.00;25.00;;;;;3.64;100.00;98712.66;6271626;20;2496118;-38
2024/04/20 02:39:16;;;;;;;;;28.00;25.50;;;;;3.68;100.00;98712.41;6273226;20;2850349;-38
2024/04/20 02:41:43;;;;;;;;;26.00;26.00;;;;;3.66;100.00;98708.97;6269228;20;2500320;-40
2024/04/20 02:44:10;;;;;;;;;30.50;28.00;;;;;3.63;100.00;98709.09;6274200;20;2859759;-38
2024/04/20 02:46:38;;;;;;;;;25.33;20.67;;;;;3.68;100.00;98708.88;6272654;20;3558735;-38
2024/04/20 02:49:05;;;;;;;;;36.50;27.00;;;;;3.64;100.00;98710.00;6304821;20;2864967;-39
2024/04/20 02:51:33;;;;;;;;;30.50;27.00;;;;;3.62;100.00;98702.09;6271628;20;2854557;-38
2024/04/20 02:54:01;;;;;;;;;27.50;25.50;;;;;3.37;100.00;98701.56;6274824;20;2841979;-40
2024/04/20 02:56:28;;;;;;;;;41.00;32.00;;;;;3.30;100.00;98699.22;6275232;20;2869068;-38
2024/04/20 02:58:57;;;;;;;;;43.67;38.67;;;;;3.35;100.00;98690.19;6273218;20;3608612;-38
2024/04/20 03:01:24;;;;;;;;;34.00;32.00;;;;;3.73;100.00;98697.09;6304898;20;2852432;-38
2024/04/20 03:03:51;;;;;;;;;30.50;24.50;;;;;3.62;100.00;98699.44;6274273;20;2669528;-38
2024/04/20 03:06:18;;;;;;;;;23.00;23.00;;;;;4.00;100.00;98701.97;6276056;20;2837902;-38
2024/04/20 03:08:44;;;;;;;;;18.50;15.00;;;;;4.27;100.00;98704.19;6276221;20;2828554;-38
2024/04/20 03:11:12;;;;;;;;;22.33;16.00;;;;;4.57;100.00;98712.31;6272490;20;3581613;-38
2024/04/20 03:13:40;;;;;;;;;16.20;15.20;;;;;4.75;98.06;98707.84;6296645;20;2822189;-38
2024/04/20 03:16:08;;;;;;;;;14.00;14.00;;;;;4.69;95.44;98706.38;6273084;20;3537763;-39
2024/04/20 03:18:36;;;;;;;;;12.40;12.00;;;;;5.11;89.91;98712.09;6329847;20;2785707;-38
2024/04/20 03:21:05;;;;;;;;;11.50;11.00;;;;;5.23;86.75;98716.75;6274750;20;2788855;-38
2024/04/20 03:23:33;;;;;;;;;10.20;10.20;;;;;5.28;84.87;98714.69;6300162;20;2762775;-38
2024/04/20 03:26:01;;;;;;;;;11.60;11.20;;;;;5.55;82.57;98722.91;6297067;20;2789839;-38
2024/04/20 03:28:30;;;;;;;;;13.60;13.00;;;;;5.36;81.70;98720.44;6300604;20;2788838;-38
2024/04/20 03:30:57;;;;;;;;;12.00;12.00;;;;;5.43;80.44;98713.84;6270905;20;2788841;-38
2024/04/20 03:33:28;;;;;;;;;10.00;10.00;;;;;5.50;82.07;98714.31;6276851;20;2781965;-38
2024/04/20 03:35:58;;;;;;;;;11.00;11.00;;;;;5.64;80.06;98711.75;6272908;20;2782645;-38
2024/04/20 03:38:26;;;;;;;;;12.00;10.50;;;;;5.66;78.43;98715.19;6272401;20;2790026;-38
2024/04/20 03:40:52;;;;;;;;;11.00;11.00;;;;;5.80;78.75;98717.06;6272826;20;2783595;-38
2024/04/20 03:43:19;;;;;;;;;12.00;12.00;;;;;5.87;77.85;98718.44;6276179;20;2782653;-40
2024/04/20 03:45:55;;;;;;;;;13.50;12.00;;;;;5.72;78.77;98716.66;6273731;20;2785744;-38
2024/04/20 03:48:22;;;;;;;;;9.00;9.00;;;;;5.86;78.85;98716.69;6277484;20;2750271;-38
2024/04/20 03:50:56;;;;;;;;;14.00;11.00;;;;;5.81;77.36;98723.25;6303081;20;2796238;-38
2024/04/20 03:53:24;;;;;;;;;12.50;11.50;;;;;5.65;78.42;98731.25;6272816;20;2789972;-38
2024/04/20 03:55:52;;;;;;;;;13.00;13.00;;;;;5.83;77.02;98724.88;6273912;20;2789908;-38
2024/04/20 03:58:20;;;;;;;;;11.50;9.00;;;;;5.93;75.49;98734.09;6291856;20;1809803;-40
2024/04/20 04:00:49;;;;;;;;;11.00;8.40;;;;;6.06;76.13;98744.03;6328752;20;2751328;-39
2024/04/20 04:03:22;;;;;;;;;13.00;9.00;;;;;6.14;75.82;98737.28;6303955;20;2773680;-38
2024/04/20 04:05:49;;;;;;;;;8.00;8.00;;;;;6.11;76.82;98740.16;6273932;20;2734720;-39
2024/04/20 04:08:17;;;;;;;;;20.67;15.67;;;;;6.04;81.67;98743.25;6272555;20;3578457;-38
2024/04/20 04:10:47;;;;;;;;;16.00;14.00;;;;;5.79;87.66;98752.59;6272181;20;3543099;-38
2024/04/20 04:13:14;;;;;;;;;16.00;15.00;;;;;5.77;86.08;98753.69;6305279;20;2807648;-38
2024/04/20 04:15:42;;;;;;;;;23.67;20.33;;;;;5.63;87.46;98752.63;6273864;20;3561807;-38
2024/04/20 04:18:11;;;;;;;;;20.50;18.00;;;;;5.36;90.83;98754.19;6272575;20;2824249;-39
2024/04/20 04:20:38;;;;;;;;;19.33;18.33;;;;;5.02;95.52;98756.00;6272999;20;3547179;-38
2024/04/20 04:23:06;;;;;;;;;17.67;15.67;;;;;5.31;95.65;98748.25;6271573;20;2819167;-39
2024/04/20 04:25:36;;;;;;;;;11.86;11.57;;;;;5.82;88.58;98763.13;6343260;20;1817003;-39
2024/04/20 04:28:04;;;;;;;;;14.00;13.00;;;;;5.80;87.35;98761.50;6303194;20;2785792;-38
2024/04/20 04:30:35;;;;;;;;;1.00;1.00;;;;;5.87;84.05;98766.38;6322182;20;1812664;-39
2024/04/20 04:33:05;;;;;;;;;14.00;12.29;;;;;6.21;79.66;98758.25;6342971;20;1812960;-38
2024/04/20 04:35:32;;;;;;;;;12.50;12.50;;;;;6.43;76.02;98768.53;6304737;20;2801383;-38
2024/04/20 04:37:59;;;;;;;;;10.00;10.00;;;;;6.35;74.87;98758.31;6273980;20;2796118;-39
2024/04/20 04:40:25;;;;;;;;;13.50;10.00;;;;;6.56;73.76;98754.34;6273520;20;2786817;-38
2024/04/20 04:42:52;;;;;;;;;13.00;12.00;;;;;6.48;74.26;98771.78;6273295;20;2788813;-38
2024/04/20 04:45:20;;;;;;;;;13.20;10.40;;;;;6.61;74.90;98764.75;6296545;20;2789857;-38
2024/04/20 04:47:47;;;;;;;;;12.50;10.00;;;;;6.62;76.12;98761.13;6271844;20;2782594;-38
2024/04/20 04:50:13;;;;;;;;;15.00;11.00;;;;;6.58;72.19;98759.59;6271811;20;2797262;-37
2024/04/20 04:52:40;;;;;;;;;12.00;12.00;;;;;6.99;71.91;98770.41;6270564;20;2779535;-38
2024/04/20 04:55:07;;;;;;;;;11.00;11.00;;;;;7.04;72.97;98770.13;6274075;20;2787884;-37
2024/04/20 04:57:33;;;;;;;;;11.00;10.50;;;;;7.07;71.84;98769.94;6269661;20;2788793;-40
2024/04/20 05:00:00;;;;;;;;;15.50;11.00;;;;;7.09;71.03;98784.06;6270755;20;2796151;-39
2024/04/20 05:02:27;;;;;;;;;17.00;15.00;;;;;7.21;69.76;98777.97;6275284;20;2820090;-39
2024/04/20 05:04:54;;;;;;;;;23.00;17.67;;;;;6.99;70.74;98778.41;6271266;20;3563861;-38
2024/04/20 05:07:22;;;;;;;;;14.33;14.33;;;;;7.02;71.59;98788.91;6269382;20;3541931;-38
2024/04/20 05:09:48;;;;;;;;;15.00;14.00;;;;;7.18;70.15;98799.47;6300876;20;2801319;-40
2024/04/20 05:12:16;;;;;;;;;9.67;9.67;;;;;7.20;68.70;98804.75;6272527;20;2785821;-40
2024/04/20 05:14:42;;;;;;;;;10.00;10.00;;;;;7.13;69.98;98804.25;6303246;20;2787888;-38
2024/04/20 05:17:12;;;;;;;;;8.67;8.67;;;;;7.25;68.75;98806.16;6315878;20;1806594;-39
2024/04/20 05:19:38;;;;;;;;;12.00;10.50;;;;;7.01;70.82;98810.34;6271177;20;2785724;-38
2024/04/20 05:22:07;;;;;;;;;15.20;12.40;;;;;7.23;70.98;98805.41;6297347;20;2794178;-38
2024/04/20 05:24:34;;;;;;;;;30.00;27.50;;;;;7.38;69.76;98806.25;6271266;20;2853444;-38
2024/04/20 05:27:02;;;;;;;;;24.00;23.00;;;;;7.53;68.91;98816.91;6271359;20;2850410;-41
2024/04/20 05:29:28;;;;;;;;;11.00;10.00;;;;;7.57;67.01;98813.97;6273802;20;2792981;-38
2024/04/20 05:31:57;;;;;;;;;10.00;10.00;;;;;7.52;68.18;98815.22;6301117;20;2787949;-40
2024/04/20 05:34:26;;;;;;;;;10.80;10.80;;;;;7.77;67.72;98820.72;6300368;20;2784700;-39
2024/04/20 05:36:53;;;;;;;;;10.00;9.67;;;;;7.82;69.31;98826.63;6277132;20;2773269;-38
2024/04/20 05:39:20;;;;;;;;;9.00;9.00;;;;;7.81;68.32;98827.56;6306175;20;2750322;-38
2024/04/20 05:41:46;;;;;;;;;12.00;11.50;;;;;8.17;66.67;98819.97;6276079;20;2790941;-40
2024/04/20 05:44:13;;;;;;;;;10.50;9.00;;;;;8.14;69.06;98827.22;6275867;20;2778516;-39
2024/04/20 05:46:39;;;;;;;;;14.00;9.00;;;;;8.47;66.87;98825.09;6277375;20;2774287;-39
2024/04/20 05:49:06;;;;;;;;;13.00;12.00;;;;;9.52;63.85;98830.34;6275151;20;2791118;-38
2024/04/20 05:51:34;;;;;;;;;13.80;11.00;;;;;9.54;61.06;98830.25;6300237;20;2789930;-39
2024/04/20 05:54:02;;;;;;;;;11.67;10.33;;;;;9.12;62.01;98837.66;6273154;20;2796214;-39
2024/04/20 05:56:30;;;;;;;;;12.00;11.00;;;;;9.31;62.17;98840.75;6307071;20;2787794;-40
2024/04/20 05:58:56;;;;;;;;;10.00;10.00;;;;;9.89;61.36;98835.75;6304461;20;2776566;-46
2024/04/20 06:01:23;;;;;;;;;13.50;11.50;;;;;9.93;60.11;98852.50;6275991;20;2784774;-39
2024/04/20 06:03:49;;;;;;;;;11.50;11.50;;;;;9.83;59.54;98842.41;6277651;20;2802419;-39
2024/04/20 06:06:18;;;;;;;;;10.40;10.40;;;;;9.95;58.80;98856.75;6302131;20;2789956;-39
2024/04/20 06:08:45;;;;;;;;;11.50;9.50;;;;;10.02;59.60;98849.13;6275353;20;2780582;-40
2024/04/20 06:11:11;;;;;;;;;9.00;9.00;;;;;9.91;57.25;98855.28;6278886;20;2764861;-39
2024/04/20 06:13:38;;;;;;;;;9.50;8.00;;;;;9.93;56.77;98860.53;6276892;20;2760787;-38
2024/04/20 06:16:05;;;;;;;;;9.50;9.00;;;;;10.31;55.91;98861.28;6278098;20;2762844;-39
2024/04/20 06:18:32;;;;;;;;;8.00;7.00;;;;;10.31;55.51;98863.13;6281109;20;2746261;-39
2024/04/20 06:20:59;;;;;;;;;7.00;7.00;;;;;10.27;54.27;98866.97;6277395;20;2756545;-39
2024/04/20 06:23:27;;;;;;;;;11.20;9.40;;;;;10.25;54.68;98864.41;6299952;20;2783645;-39
2024/04/20 06:25:55;;;;;;;;;12.60;9.40;;;;;10.38;54.75;98868.91;6300978;20;2786770;-39
2024/04/20 06:28:23;;;;;;;;;10.00;10.00;;;;;10.31;55.31;98869.34;6277688;20;2792026;-38
2024/04/20 06:30:51;;;;;;;;;10.50;10.50;;;;;10.50;55.59;98870.66;6305210;20;2792002;-39
2024/04/20 06:33:18;;;;;;;;;12.50;9.50;;;;;10.49;55.37;98877.00;6277786;20;2781613;-39
2024/04/20 06:35:44;;;;;;;;;11.50;10.50;;;;;10.45;57.93;98876.41;6278549;20;2796182;-38
2024/04/20 06:38:11;;;;;;;;;12.00;11.00;;;;;10.57;57.76;98879.97;6275937;20;2789886;-40
2024/04/20 06:40:38;;;;;;;;;10.00;10.00;;;;;10.61;57.74;98884.16;6274401;20;2780538;-39
2024/04/20 06:43:04;;;;;;;;;15.00;12.00;;;;;10.59;59.64;98877.19;6277524;20;2773253;-39
2024/04/20 06:45:31;;;;;;;;;9.50;9.50;;;;;10.54;58.83;98880.22;6276091;20;2775359;-38
2024/04/20 06:47:58;;;;;;;;;8.50;8.50;;;;;10.76;60.00;98884.81;6272767;20;2747197;-39
2024/04/20 06:50:25;;;;;;;;;11.00;11.00;;;;;10.53;62.44;98886.53;6269596;20;2789037;-39
2024/04/20 06:52:52;;;;;;;;;11.50;8.50;;;;;10.47;62.79;98884.31;6304043;20;2769146;-40
2024/04/20 06:55:19;;;;;;;;;10.50;10.50;;;;;10.25;63.34;98890.38;6276442;20;2788239;-38
2024/04/20 06:57:45;;;;;;;;;9.00;9.00;;;;;10.27;63.51;98889.31;6278263;20;2748250;-39
2024/04/20 07:00:13;;;;;;;;;7.50;6.00;;;;;10.61;64.15;98892.22;6278190;20;2746219;-39
2024/04/20 07:02:39;;;;;;;;;3.00;3.00;;;;;11.19;62.36;98893.16;6276837;20;2742985;-39
2024/04/20 07:05:06;;;;;;;;;4.00;4.00;;;;;10.77;64.31;98897.28;6278322;20;2733683;-39
2024/04/20 07:07:34;;;;;;;;;5.00;5.00;;;;;11.20;64.11;98897.56;6277225;20;2750259;-42
2024/04/20 07:10:01;;;;;;;;;4.00;3.00;;;;;11.01;64.07;98905.31;6279363;20;2737808;-39
2024/04/20 07:12:29;;;;;;;;;2.75;2.75;;;;;11.38;64.76;98900.66;6293486;20;1807654;-39
2024/04/20 07:14:56;;;;;;;;;2.75;2.75;;;;;12.34;60.97;98906.59;6327988;20;1807740;-40
2024/04/20 07:17:22;;;;;;;;;3.00;3.00;;;;;13.10;58.16;98911.00;6311016;20;2732560;-38
2024/04/20 07:19:50;;;;;;;;;1.00;1.00;;;;;13.58;56.37;98907.81;6292575;20;1804542;-40
2024/04/20 07:22:17;;;;;;;;;1.00;1.00;;;;;13.07;57.00;98910.41;6308694;20;2718031;-40
2024/04/20 07:24:43;;;;;;;;;2.00;2.00;;;;;13.81;55.77;98921.16;6279508;20;2748206;-40
2024/04/20 07:27:10;;;;;;;;;0.50;0.50;;;;;12.99;56.29;98923.66;6279317;20;2730493;-38
2024/04/20 07:29:38;;;;;;;;;1.00;1.00;;;;;13.03;56.99;98917.03;6293542;20;1802491;-39
2024/04/20 07:32:05;;;;;;;;;2.00;1.00;;;;;13.08;57.50;98915.66;6308710;20;2735765;-38
2024/04/20 07:34:32;;;;;;;;;1.75;0.00;;;;;12.44;58.13;98912.94;6293140;20;1802948;-38
2024/04/20 07:37:00;;;;;;;;;0.00;0.00;;;;;12.14;59.48;98906.38;6325770;20;1800412;-39
2024/04/20 07:39:27;;;;;;;;;0.50;0.50;;;;;12.27;60.19;98908.94;6311070;20;2729535;-38
2024/04/20 07:41:54;;;;;;;;;1.00;1.00;;;;;12.41;60.85;98911.34;6291972;20;1802563;-38
2024/04/20 07:44:21;;;;;;;;;1.00;1.00;;;;;12.42;60.20;98910.34;6311121;20;2734683;-38
2024/04/20 07:46:59;;;;;;;;;1.00;1.00;;;;;11.96;60.29;98916.78;6294117;20;1803492;-39
2024/04/20 07:49:26;;;;;;;;;1.00;1.00;;;;;12.22;60.99;98920.06;6323560;20;1802520;-38
2024/04/20 07:51:53;;;;;;;;;4.00;3.50;;;;;12.45;61.05;98926.28;6308845;20;2754479;-38
2024/04/20 07:54:21;;;;;;;;;56.50;44.50;;;;;12.39;61.73;98918.69;6272508;20;3628386;-39
2024/04/20 07:56:48;;;;;;;;;2.00;2.00;;;;;12.67;62.62;98924.50;6308062;20;2736001;-38
2024/04/20 07:59:15;;;;;;;;;1.00;1.00;;;;;12.74;59.81;98925.69;6278533;20;2721150;-38
2024/04/20 08:01:42;;;;;;;;;1.75;0.75;;;;;12.49;60.72;98930.41;6294469;20;1802978;-39
2024/04/20 08:04:10;;;;;;;;;1.00;0.00;;;;;12.88;59.69;98933.50;6326475;20;1805618;-39
2024/04/20 08:06:37;;;;;;;;;0.00;0.00;;;;;12.78;60.16;98931.69;6309853;20;2729634;-38
2024/04/20 08:09:04;;;;;;;;;0.50;0.50;;;;;13.22;59.21;98937.88;6274781;20;2733741;-39
2024/04/20 08:11:30;;;;;;;;;1.00;0.00;;;;;13.38;58.46;98936.50;6279829;20;2733663;-40
2024/04/20 08:13:58;;;;;;;;;0.00;0.00;;;;;12.69;58.39;98946.75;6288871;20;1804506;-39
2024/04/20 08:16:24;;;;;;;;;0.50;0.50;;;;;13.01;58.48;98945.97;6310227;20;2729487;-40
2024/04/20 08:18:52;;;;;;;;;1.00;1.00;;;;;12.77;59.05;98949.72;6292879;20;1805627;-40
2024/04/20 08:21:20;;;;;;;;;1.00;1.00;;;;;12.64;59.05;98952.56;6312803;20;2730485;-36
2024/04/20 08:23:47;;;;;;;;;9.00;9.00;;;;;12.50;60.86;98955.50;6270779;20;2754668;-39
2024/04/20 08:26:13;;;;;;;;;0.00;0.00;;;;;12.48;61.13;98961.03;6275579;20;2727355;-41
2024/04/20 08:28:41;;;;;;;;;1.00;1.00;;;;;12.30;62.46;98954.44;6288999;20;1807743;-39
2024/04/20 08:31:07;;;;;;;;;0.00;0.00;;;;;12.35;61.69;98963.00;6306114;20;2729504;-37
2024/04/20 08:33:34;;;;;;;;;7.00;2.00;;;;;11.66;64.63;98960.34;6269151;20;2756540;-40
2024/04/20 08:36:01;;;;;;;;;0.50;0.00;;;;;12.29;63.99;98968.84;6291976;20;1803624;-36
2024/04/20 08:38:28;;;;;;;;;1.00;1.00;;;;;12.49;63.42;98976.19;6306256;20;2723192;-37
2024/04/20 08:41:11;;;;;;;;;1.00;1.00;;;;;13.23;61.65;98978.19;6293323;20;1803541;-37
2024/04/20 08:43:40;;;;;;;;;1.00;1.00;;;;;12.78;61.49;98986.44;6309734;20;2720096;-38
2024/04/20 08:46:13;;;;;;;;;1.00;1.00;;;;;12.51;61.52;98978.78;6278267;20;2733683;-38
2024/04/20 08:48:45;;;;;;;;;1.00;1.00;;;;;11.98;63.21;98971.31;6278476;20;2727452;-39
2024/04/20 08:51:20;;;;;;;;;0.00;0.00;;;;;12.43;62.83;98975.84;6293609;20;1803495;-38
2024/04/20 08:53:50;;;;;;;;;0.50;0.50;;;;;12.54;62.77;98991.13;6310225;20;2728478;-41
2024/04/20 08:56:19;;;;;;;;;1.00;1.00;;;;;12.27;63.12;98982.44;6294095;20;1803460;-39
2024/04/20 08:58:46;;;;;;;;;0.00;0.00;;;;;12.25;63.55;98989.78;6324981;20;1803440;-39
2024/04/20 09:01:18;;;;;;;;;1.00;0.00;;;;;12.04;63.08;98991.50;6324743;20;1803503;-39
2024/04/20 09:03:45;;;;;;;;;0.00;0.00;;;;;12.08;64.47;98993.81;6324917;20;1803005;-42
2024/04/20 09:06:13;;;;;;;;;0.00;0.00;;;;;12.10;63.31;98993.69;6324898;20;1799393;-39
2024/04/20 09:08:42;;;;;;;;;1.00;1.00;;;;;12.20;64.06;99001.91;6321985;20;1805644;-39
2024/04/20 09:11:10;;;;;;;;;0.00;0.00;;;;;12.27;62.16;99003.13;6324753;20;1803509;-40
2024/04/20 09:13:37;;;;;;;;;0.00;0.00;;;;;12.48;63.11;99003.22;6323856;20;1802442;-40
2024/04/20 09:16:06;;;;;;;;;1.00;1.00;;;;;12.22;62.94;99005.34;6308882;20;2730507;-42
2024/04/20 09:18:34;;;;;;;;;1.00;1.00;;;;;12.67;62.15;99005.31;6291161;20;1807675;-39
2024/04/20 09:21:01;;;;;;;;;1.00;1.00;;;;;12.60;62.77;99004.09;6323679;20;1803493;-42
2024/04/20 09:23:28;;;;;;;;;2.00;1.00;;;;;12.19;64.23;99010.94;6310409;20;2730627;-41
2024/04/20 09:25:55;;;;;;;;;0.25;0.25;;;;;12.28;62.72;99008.38;6292674;20;1799782;-40
2024/04/20 09:28:23;;;;;;;;;2.00;1.00;;;;;12.42;62.75;99014.50;6322724;20;1801416;-41
2024/04/20 09:30:52;;;;;;;;;3.00;3.00;;;;;12.10;61.16;99000.91;6305311;20;2743086;-39
2024/04/20 09:33:19;;;;;;;;;1.00;1.00;;;;;12.26;59.14;99010.31;6275464;20;2728398;-40
2024/04/20 09:35:46;;;;;;;;;1.25;1.00;;;;;11.91;59.97;99007.75;6291962;20;1801888;-41
2024/04/20 09:38:14;;;;;;;;;0.00;0.00;;;;;12.66;58.44;99003.56;6322224;20;1804019;-41
2024/04/20 09:40:41;;;;;;;;;0.50;0.50;;;;;12.12;58.86;98999.81;6325380;20;1803596;-39
2024/04/20 09:43:12;;;;;;;;;1.00;1.00;;;;;12.43;57.82;99006.31;6321915;20;1805696;-42
2024/04/20 09:45:42;;;;;;;;;0.00;0.00;;;;;12.69;58.12;99014.09;6322788;20;1803264;-42
2024/04/20 09:48:16;;;;;;;;;1.00;1.00;;;;;12.56;57.60;99005.31;6320626;20;1804013;-40
2024/04/20 09:50:49;;;;;;;;;0.25;0.25;;;;;13.64;55.51;99011.66;6323636;20;1801523;-42
2024/04/20 09:53:33;;;;;;;;;1.00;1.00;;;;;12.97;56.79;99007.31;6306766;20;2731571;-42
2024/04/20 09:56:02;;;;;;;;;2.00;0.00;;;;;15.33;52.51;99008.38;6291630;20;1804582;-43
2024/04/20 09:58:32;;;;;;;;;0.00;0.00;;;;;13.23;55.79;98998.91;6307672;20;2727376;-47
2024/04/20 10:01:00;;;;;;;;;1.00;1.00;;;;;13.55;57.17;98996.22;6278985;20;2727400;-44
2024/04/20 10:03:28;;;;;;;;;1.00;1.00;;;;;14.13;53.32;99007.41;6275075;20;2725720;-45
2024/04/20 10:05:56;;;;;;;;;0.00;0.00;;;;;14.22;52.97;99005.75;6292580;20;1803507;-40
2024/04/20 10:08:25;;;;;;;;;2.00;0.00;;;;;13.02;56.53;98997.03;6309271;20;2727351;-41
2024/04/20 10:10:51;;;;;;;;;0.00;0.00;;;;;12.89;56.17;98999.88;6276326;20;2733725;-41
2024/04/20 10:13:19;;;;;;;;;0.00;0.00;;;;;13.88;52.43;99002.44;6275462;20;2727386;-42
2024/04/20 10:15:48;;;;;;;;;0.75;0.75;;;;;13.66;51.41;99008.81;6294487;20;1803524;-40
2024/04/20 10:18:15;;;;;;;;;0.00;0.00;;;;;13.39;52.63;99002.91;6311610;20;2727356;-43
2024/04/20 10:20:43;;;;;;;;;0.00;0.00;;;;;13.58;52.73;99001.34;6281458;20;2728413;-41
2024/04/20 10:23:20;;;;;;;;;0.00;0.00;;;;;13.65;53.41;98994.47;6296807;20;1794143;-42
2024/04/20 10:25:53;;;;;;;;;1.00;1.00;;;;;13.59;53.07;99003.09;6313170;20;2727414;-43
2024/04/20 10:28:32;;;;;;;;;0.00;0.00;;;;;13.00;54.25;99004.38;6278746;20;2732589;-40
2024/04/20 10:31:02;;;;;;;;;0.75;0.75;;;;;13.06;55.42;99000.31;6293220;20;1802488;-40
2024/04/20 10:33:43;;;;;;;;;0.00;0.00;;;;;13.02;55.41;99010.50;6310681;20;2731572;-42
2024/04/20 10:36:16;;;;;;;;;0.75;0.75;;;;;12.75;56.95;99008.22;6294440;20;1802494;-45
2024/04/20 10:38:43;;;;;;;;;1.00;1.00;;;;;12.70;57.47;99000.53;6313049;20;2727589;-41
2024/04/20 10:41:17;;;;;;;;;0.75;0.75;;;;;12.86;59.23;99010.91;6294638;20;1800499;-42
2024/04/20 10:43:46;;;;;;;;;1.00;1.00;;;;;12.55;62.26;99012.53;6312495;20;2733692;-44
2024/04/20 10:46:17;;;;;;;;;3.00;2.00;;;;;12.74;61.19;99006.50;6280738;20;2746244;-41
2024/04/20 10:48:55;;;;;;;;;1.00;1.00;;;;;12.72;60.12;99003.09;6294164;20;1801448;-41
2024/04/20 10:51:21;;;;;;;;;1.00;1.00;;;;;12.92;58.16;99002.31;6312702;20;2724326;-42
2024/04/20 10:54:02;;;;;;;;;1.00;1.00;;;;;13.60;57.85;98999.38;6295313;20;1798185;-44
2024/04/20 10:56:35;;;;;;;;;1.00;1.00;;;;;13.56;53.86;98995.22;6312121;20;2737506;-44
2024/04/20 10:59:06;;;;;;;;;0.75;0.75;;;;;14.48;51.55;99000.72;6294655;20;1803544;-42
2024/04/20 11:01:34;;;;;;;;;1.00;1.00;;;;;14.39;50.86;99004.25;6307884;20;2727400;-41
2024/04/20 11:04:00;;;;;;;;;1.00;1.00;;;;;14.40;49.74;99005.97;6272649;20;2726503;-45
2024/04/20 11:06:27;;;;;;;;;1.50;1.50;;;;;13.39;54.05;99002.91;6266101;20;2729508;-42
2024/04/20 11:08:53;;;;;;;;;1.00;1.00;;;;;13.14;56.88;99008.63;6272667;20;2729605;-43
2024/04/20 11:11:21;;;;;;;;;2.25;1.00;;;;;12.22;60.35;99005.34;6285161;20;1803548;-43
2024/04/20 11:14:01;;;;;;;;;0.75;0.75;;;;;12.26;62.60;99001.41;6319534;20;1799359;-41